Ashwaubenon, Wisconsin
Current Conditions -  °F | °C
As of 12:53 PM on Friday 24 Oct 2014 (Local Time) from KGRB Reporting Station
Haze Haze  
Wind Chill: 11°   Ceiling: 400
Heat Index: 11°   Visibility: 5mi
Dew Point:   Wind: 7mph
Humidity: 89%   Direction: 240°WSW
Pressure: 29.98"   Gusts: NA
Location:  44.48°N, 88.07°W
Report Text: KGRB 241753Z 24006KT 5SM BR OVC004 11/09 A2998 RMK AO2 SLP155 T01060089 10106 20089 58016
Loading
Personal Weather Stations






























Interactive Weather Map
Tropical Storm Tracking
New forecast layout! Learn more

10-Day Weather Forecast

Advertisements
Track Severe Weather on mobile